Tiempo atmosférico en la estación meteorológica de Valderredible, Cubillo de Ebro, Cantabria (765 m.)



Fecha
DESCASC
Temp. máxima en grados centígrados (hora)
DESCASC
Temp. mínima en grados centígrados (hora)
DESCASC
Temp. media en grados centígrados
DESCASC
Racha de viento máxima en m/sg (hora)
DESCASC
Velocidad máxima media en intervalos de 10 minutos(hora)
DESCASC
Precipitaciones diarias en mm
DESCASC
Precipitaciones de 00:00 a 06:00 en mm
DESCASC
Precipitaciones de 06:00 a 12:00 en mm
DESCASC
Precipitaciones de 12:00 a 18:00 en mm
DESCASC
Precipitaciones de 18:00 a 24:00 en mm
DESCASC
06-12-2018 11.2 (15:10) 4.7 (00:30) 7.9 5 (23:59) 2.78 (23:59) 0 0 0 0 0
05-12-2018 15.5 (14:10) 0.2 (08:30) 7.9 9.72 (12:20) 5.83 (12:20) 0 0 0 0 0
04-12-2018 14.4 (15:40) 4.2 (23:50) 9.3 6.11 (13:50) 3.61 (13:40) 0 0 0 0 0
03-12-2018 11.8 (15:20) 7.4 (00:00) 9.6 8.61 (07:30) 5.56 (07:30) 0 0 0 0 0
02-12-2018 10.5 (15:10) 6.9 (00:00) 8.7 10.83 (19:50) 5.83 (16:30) 0 0 0 0 0
01-12-2018 9.5 (15:00) 0.6 (00:00) 5.1 10.28 (20:20) 5 (17:40) 0.2 0 0.2 0 0
30-11-2018 9.2 (15:40) 0.4 (00:00) 4.8 5.83 (07:10) 3.33 (07:10) 0 0 0 0 0
29-11-2018 9.6 (10:50) 3.5 (00:00) 6.6 9.44 (02:00) 5.56 (00:10) 1.6 0 0 1.6 0
28-11-2018 12 (14:20) 5 (00:00) 8.5 12.22 (13:50) 6.94 (13:40) 0 0 0 0 0
27-11-2018 9.4 (13:50) -2.1 (-00:0) 3.6 8.61 (12:10) 6.11 (12:00) 0 0 0 0 0
26-11-2018 10 (13:30) 0.8 (23:59) 5.4 10.28 (15:10) 4.72 (17:50) 3 3 0 0 0
25-11-2018 11.1 (14:30) 4.8 (00:00) 8 15.28 (02:00) 7.22 (02:00) 3 2.8 0 0.2 0
24-11-2018 10 (14:00) 5.9 (00:00) 8 17.78 (23:10) 9.17 (23:10) 2.4 0.2 0 0 2.2
23-11-2018 9.9 (14:50) 5.6 (00:00) 7.7 10 (17:00) 5.83 (23:50) 0.8 0.6 0 0.2 0
22-11-2018 10.5 (14:00) 4.7 (00:00) 7.6 12.22 (01:30) 6.39 (13:00) 1.8 0.2 1.6 0 0
21-11-2018 10.1 (13:50) 2.9 (00:00) 6.5 11.39 (13:20) 5 (13:00) 2.8 1.2 0 1.6 0
20-11-2018 7.4 (00:00) 2.9 (00:00) 5.2 4.17 (12:10) 2.5 (12:10) 6 0 2.2 2.8 1
19-11-2018 14.5 (15:20) 6.7 (00:00) 10.6 7.5 (01:40) 5 (01:30) 0.2 0 0.2 0 0
18-11-2018 10.8 (14:20) 2.9 (00:00) 6.9 10.28 (19:10) 5.83 (19:10) 0.8 0 0 0 0.8
17-11-2018 17.5 (15:00) 2.4 (00:00) 10 6.11 (14:10) 3.06 (14:10) 0 0 0 0 0
16-11-2018 16.9 (13:50) 5.1 (00:00) 11 7.78 (16:40) 5.28 (16:40) 0 0 0 0 0
15-11-2018 18.1 (15:20) 4.8 (00:00) 11.5 5.56 (13:30) 3.06 (13:20) 0 0 0 0 0
14-11-2018 16.6 (15:00) 7 (00:00) 11.8 4.17 (15:20) 2.5 (15:20) 0 0 0 0 0
13-11-2018 16.5 (15:40) 6.2 (00:00) 11.3 4.72 (12:50) 3.06 (11:50) 0 0 0 0 0
12-11-2018 12.7 (14:50) 7.4 (00:00) 10 5.28 (00:10) 3.33 (00:10) 3.6 2 0.4 0.8 0.4
11-11-2018 12.4 (16:30) 8 (00:00) 10.2 14.72 (00:50) 7.22 (05:00) 13.4 0 1.4 5.8 6.2
10-11-2018 16.9 (12:40) 9.3 (00:00) 13.1 17.78 (06:20) 8.89 (07:20) 1 0.2 0 0.8 0

Gráficas

Temp. máximas Temp. mínimas Temp. medias Precipitaciones Rachas de viento máximas Velocidades máximas media en intervalos de 10 minutos

Datos horarios

Fecha y hora oficial Temperatura (ºC) Velocidad del viento (km/h) Dirección del viento Racha (km/h) Dirección de racha Precipitación (mm) Presión (hPa) Tendencia (hPa) Humedad (%)
2018-12-09 23:00:00 0 3 Oeste 5 Sudoeste 0 -- -- 95
2018-12-09 22:00:00 1.3 2 Sudoeste 6 Oeste 0 -- -- 95
2018-12-09 21:00:00 2.6 0 Calma 4 Nordeste 0 -- -- 93
2018-12-09 20:00:00 4.3 3 Sudeste 5 Nordeste 0 -- -- 90
2018-12-09 19:00:00 5.9 4 Este 10 Este 0 -- -- 86
2018-12-09 18:00:00 8.3 2 Sudeste 10 Norte 0 -- -- 78
2018-12-09 17:00:00 11.2 4 Sudeste 15 Noroeste 0 -- -- 70
2018-12-09 16:00:00 12.2 3 Sur 10 Sudeste 0 -- -- 68
2018-12-09 15:00:00 10.8 4 Sur 13 Sudeste 0 -- -- 73
2018-12-09 14:00:00 9.3 4 Sudeste 10 Sudeste 0 -- -- 80
2018-12-09 13:00:00 6.9 5 Sudoeste 9 Sudoeste 0 -- -- 96
2018-12-09 12:00:00 5.3 4 Oeste 10 Oeste 0 -- -- 99
2018-12-09 11:00:00 3.4 3 Oeste 6 Oeste 0 -- -- 100
2018-12-09 10:00:00 1.7 2 Oeste 11 Este 0 -- -- 99
2018-12-09 09:00:00 0.4 2 Sudoeste 10 Oeste 0 -- -- 99
2018-12-09 08:00:00 -0.4 4 Sudoeste 8 Sudoeste 0 -- -- 99
2018-12-09 07:00:00 -0.9 3 Oeste 8 Este 0 -- -- 98
2018-12-09 06:00:00 -1.4 5 Este 11 Oeste 0 -- -- 98
2018-12-09 05:00:00 -1.3 8 Oeste 12 Noroeste 0 -- -- 98
2018-12-09 04:00:00 -0.9 7 Oeste 10 Oeste 0 -- -- 98
2018-12-09 03:00:00 -0.5 4 Oeste 11 Noroeste 0 -- -- 98
2018-12-09 02:00:00 -0.3 6 Oeste 10 Noroeste 0 -- -- 97
2018-12-09 01:00:00 0.1 3 Oeste 11 Oeste 0 -- -- 97
2018-12-09 00:00:00 0.7 0 Calma 6 Oeste 0 -- -- 96
2018-12-08 23:00:00 1.2 4 Oeste 10 Oeste 0 -- -- 96
2018-12-08 22:00:00 1.8 3 Noroeste 6 Noroeste 0 -- -- 95
2018-12-08 21:00:00 2.5 3 Noroeste 8 Oeste 0 -- -- 93
2018-12-08 20:00:00 4 3 Oeste 5 Este 0 -- -- 89
2018-12-08 19:00:00 5.6 0 Calma 5 Oeste 0 -- -- 85
2018-12-08 18:00:00 7.8 2 Oeste 6 Oeste 0 -- -- 78
2018-12-08 17:00:00 9.4 5 Noroeste 12 Sudoeste 0 -- -- 73
2018-12-08 16:00:00 9.8 11 Oeste 21 Oeste 0 -- -- 70
2018-12-08 15:00:00 11 13 Oeste 26 Oeste 0 -- -- 64
2018-12-08 14:00:00 10.7 7 Sudoeste 22 Sudoeste 0 -- -- 70
2018-12-08 13:00:00 8.9 18 Oeste 29 Oeste 0 -- -- 76
2018-12-08 12:00:00 7.7 8 Oeste 16 Noroeste 0 -- -- 91
2018-12-08 11:00:00 3.7 6 Sudoeste 8 Sudoeste 0 -- -- 99
2018-12-08 10:00:00 1.4 3 Oeste 8 Sudoeste 0 -- -- 98
2018-12-08 09:00:00 0.6 5 Noroeste 8 Noroeste 0 -- -- 98
2018-12-08 08:00:00 1.4 4 Este 6 Este 0 -- -- 97
2018-12-08 07:00:00 2.5 2 Sudoeste 6 Oeste 0 -- -- 97
2018-12-08 06:00:00 3.9 2 Sudoeste 6 Nordeste 0 -- -- 97
2018-12-08 05:00:00 4.2 2 Este 8 Noroeste 0 -- -- 97
2018-12-08 04:00:00 4.1 0 Calma 6 Oeste 0 -- -- 97
2018-12-08 03:00:00 4.1 6 Noroeste 8 Oeste 0 -- -- 96
2018-12-08 02:00:00 4.6 0 Calma 4 Noroeste 0 -- -- 96
2018-12-08 01:00:00 5.7 0 Calma 7 Este 0 -- -- 96
2018-12-08 00:00:00 5.7 5 Este 13 Este 0 -- -- 96
2018-12-07 23:00:00 6.4 5 Sudeste 17 Sudeste 0.8 -- -- 95
2018-12-07 22:00:00 7.7 6 Este 10 Sudeste 0 -- -- 92
2018-12-07 21:00:00 8 2 Noroeste 9 Sudeste 0 -- -- 88
2018-12-07 20:00:00 8.5 2 Este 5 Este 0 -- -- 84
2018-12-07 19:00:00 8.6 3 Este 5 Norte 0 -- -- 84
2018-12-07 18:00:00 8.6 3 Nordeste 4 Sudoeste 0 -- -- 83
2018-12-07 17:00:00 9 5 Sudoeste 24 Sudoeste 0 -- -- 80
2018-12-07 16:00:00 8.9 11 Sudoeste 31 Oeste 0 -- -- 79
2018-12-07 15:00:00 9.6 17 Oeste 34 Oeste 0 -- -- 75
2018-12-07 14:00:00 8.2 20 Oeste 43 Oeste 0 -- -- 80
2018-12-07 13:00:00 8 20 Oeste 36 Sudoeste 0 -- -- 80
2018-12-07 12:00:00 8 9 Sudoeste 22 Oeste 0 -- -- 79
2018-12-07 11:00:00 6.4 12 Oeste 22 Sudoeste 0 -- -- 84
2018-12-07 10:00:00 5.1 14 Oeste 27 Oeste 0 -- -- 86
2018-12-07 09:00:00 4.9 16 Oeste 28 Oeste 0 -- -- 85
2018-12-07 08:00:00 5.1 11 Oeste 26 Oeste 0 -- -- 86
2018-12-07 07:00:00 4.8 4 Oeste 16 Oeste 0 -- -- 86
2018-12-07 06:00:00 4.7 9 Oeste 17 Oeste 0 -- -- 87
2018-12-07 05:00:00 5.1 10 Oeste 25 Sudoeste 0 -- -- 85
2018-12-07 04:00:00 5.7 12 Oeste 23 Oeste 0 -- -- 83
2018-12-07 03:00:00 6.4 10 Oeste 19 Sudoeste 0 -- -- 85
2018-12-07 02:00:00 6.6 8 Sudoeste 21 Sudoeste 0 -- -- 87
2018-12-07 01:00:00 7.4 8 Sudoeste 21 Sudoeste 0 -- -- 86
2018-12-07 00:00:00 7.7 10 Oeste 18 Sudoeste 0 -- -- 84
2018-12-06 23:00:00 6.9 3 Sur 7 Sur 0 -- -- 86
2018-12-06 22:00:00 6.7 0 Calma 6 Este 0 -- -- 88
2018-12-06 21:00:00 6.7 2 Noroeste 6 Sudoeste 0 -- -- 87
2018-12-06 20:00:00 6.8 3 Sudoeste 6 Sudoeste 0 -- -- 85
2018-12-06 19:00:00 7.8 3 Nordeste 7 Noroeste 0 -- -- 83
2018-12-06 18:00:00 8.1 3 Noroeste 5 Noroeste 0 -- -- 81
2018-12-06 17:00:00 9.2 4 Sudoeste 8 Sudoeste 0 -- -- 75
2018-12-06 16:00:00 10.1 0 Calma 11 Sudoeste 0 -- -- 72
2018-12-06 15:00:00 11 3 Sur 15 Noroeste 0 -- -- 71
2018-12-06 14:00:00 9.9 7 Noroeste 12 Oeste 0 -- -- 73
2018-12-06 13:00:00 10.1 5 Oeste 15 Sudoeste 0 -- -- 74
2018-12-06 12:00:00 9.1 4 Sudoeste 11 Sudoeste 0 -- -- 83
2018-12-06 11:00:00 8.5 6 Sudoeste 9 Sudoeste 0 -- -- 88
2018-12-06 10:00:00 7.8 0 Calma 5 Sudoeste 0 -- -- 93
2018-12-06 09:00:00 7.7 3 Oeste 5 Sudoeste 0 -- -- 93
2018-12-06 08:00:00 7.8 3 Noroeste 8 Noroeste 0 -- -- 93
2018-12-06 07:00:00 7.8 6 Noroeste 9 Noroeste 0 -- -- 94
2018-12-06 06:00:00 7.5 4 Noroeste 6 Noroeste 0 -- -- 95
2018-12-06 05:00:00 7.5 0 Calma 8 Norte 0 -- -- 96
2018-12-06 04:00:00 7.2 0 Calma 10 Noroeste 0 -- -- 96
2018-12-06 03:00:00 6.6 2 Nordeste 5 Sudeste 0 -- -- 97
2018-12-06 02:00:00 6.3 2 Oeste 6 Noroeste 0 -- -- 97
2018-12-06 01:00:00 5.4 3 Nordeste 7 Oeste 0 -- -- 97
2018-12-06 00:00:00 4.9 3 Este 6 Sudoeste 0 -- -- 97
2018-12-05 23:00:00 3.4 5 Oeste 11 Oeste 0 -- -- 95
2018-12-05 22:00:00 3.5 0 Calma 8 Oeste 0 -- -- 94
2018-12-05 21:00:00 4.4 2 Este 8 Sudoeste 0 -- -- 92
2018-12-05 20:00:00 5.4 3 Sudeste 7 Noroeste 0 -- -- 90
2018-12-05 19:00:00 7.6 2 Oeste 9 Sudoeste 0 -- -- 85
2018-12-05 18:00:00 8.7 4 Oeste 12 Sudoeste 0 -- -- 81
2018-12-05 17:00:00 10.8 7 Oeste 21 Oeste 0 -- -- 74
2018-12-05 16:00:00 11.6 15 Oeste 24 Sudoeste 0 -- -- 70
2018-12-05 15:00:00 13.2 14 Sudoeste 30 Sudoeste 0 -- -- 60
2018-12-05 14:00:00 15.1 11 Sudoeste 30 Sur 0 -- -- 59
2018-12-05 13:00:00 13.6 18 Sur 35 Sudoeste 0 -- -- 61
2018-12-05 12:00:00 14.7 14 Oeste 23 Oeste 0 -- -- 60
2018-12-05 11:00:00 12.3 11 Sudoeste 21 Sudoeste 0 -- -- 78
2018-12-05 10:00:00 4 6 Oeste 10 Oeste 0 -- -- 100
2018-12-05 09:00:00 0.4 4 Oeste 7 Oeste 0 -- -- 99
2018-12-05 08:00:00 0.8 3 Oeste 8 Este 0 -- -- 99
2018-12-05 07:00:00 0.7 2 Oeste 6 Este 0 -- -- 99
2018-12-05 06:00:00 0.8 4 Este 9 Este 0 -- -- 99
2018-12-05 05:00:00 1.3 2 Este 6 Nordeste 0 -- -- 98
2018-12-05 04:00:00 1.3 2 Oeste 7 Noroeste 0 -- -- 98
2018-12-05 03:00:00 2.6 3 Este 5 Este 0 -- -- 98
2018-12-05 02:00:00 2.6 0 Calma 3 Noroeste 0 -- -- 98
2018-12-05 01:00:00 3.4 3 Noroeste 5 Noroeste 0 -- -- 97
2018-12-05 00:00:00 4.2 2 Este 8 Noroeste 0 -- -- 96
2018-12-04 23:00:00 5.4 0 Calma 5 Oeste 0 -- -- 95
2018-12-04 22:00:00 6.6 3 Oeste 5 Sudoeste 0 -- -- 92
2018-12-04 21:00:00 8.8 0 Calma 9 Oeste 0 -- -- 93
2018-12-04 20:00:00 9.6 4 Noroeste 7 Oeste 0 -- -- 92
2018-12-04 19:00:00 9.9 4 Noroeste 8 Sudeste 0 -- -- 89
2018-12-04 18:00:00 11.2 5 Sudeste 14 Sudeste 0 -- -- 88
2018-12-04 17:00:00 12 8 Sudeste 15 Sudoeste 0 -- -- 85
2018-12-04 16:00:00 13.9 7 Sudoeste 17 Oeste 0 -- -- 77
2018-12-04 15:00:00 13.4 8 Oeste 19 Noroeste 0 -- -- 80
2018-12-04 14:00:00 11.9 12 Oeste 22 Oeste 0 -- -- 85
2018-12-04 13:00:00 12.1 7 Oeste 15 Oeste 0 -- -- 84
2018-12-04 12:00:00 11.7 6 Sudoeste 15 Oeste 0 -- -- 85
2018-12-04 11:00:00 11.2 5 Sudoeste 9 Sudoeste 0 -- -- 89
2018-12-04 10:00:00 9.6 3 Sudoeste 6 Sudoeste 0 -- -- 95
2018-12-04 09:00:00 9.3 0 Calma 10 Oeste 0 -- -- 95
2018-12-04 08:00:00 9.4 4 Oeste 6 Oeste 0 -- -- 96
2018-12-04 07:00:00 8.8 0 Calma 4 Oeste 0 -- -- 97
2018-12-04 06:00:00 8.3 3 Norte 7 Noroeste 0 -- -- 97
2018-12-04 05:00:00 7.9 4 Este 9 Noroeste 0 -- -- 95
2018-12-04 04:00:00 8.9 2 Oeste 5 Norte 0 -- -- 93
2018-12-04 03:00:00 9.9 0 Calma 7 Noroeste 0 -- -- 92
2018-12-04 02:00:00 10 0 Calma 5 Sudeste 0 -- -- 93
2018-12-04 01:00:00 10 2 Sudeste 6 Noroeste 0 -- -- 93
2018-12-04 00:00:00 10.2 5 Noroeste 9 Noroeste 0 -- -- 93
2018-12-03 23:00:00 10.2 0 Calma 15 Oeste 0 -- -- 92
2018-12-03 22:00:00 10.5 8 Noroeste 13 Noroeste 0 -- -- 90
2018-12-03 21:00:00 10.5 6 Noroeste 17 Oeste 0 -- -- 88
2018-12-03 20:00:00 10.4 2 Noroeste 8 Sur 0 -- -- 89
2018-12-03 19:00:00 10.4 5 Oeste 12 Oeste 0 -- -- 88
2018-12-03 18:00:00 10.6 6 Sudoeste 22 Sudoeste 0 -- -- 87
2018-12-03 17:00:00 11.1 8 Oeste 18 Sudoeste 0 -- -- 84
2018-12-03 16:00:00 11.3 11 Oeste 25 Oeste 0 -- -- 84
2018-12-03 15:00:00 11.3 15 Sudoeste 26 Sudoeste 0 -- -- 83
2018-12-03 14:00:00 11.2 10 Sudoeste 19 Oeste 0 -- -- 82
2018-12-03 13:00:00 10.1 10 Sudoeste 19 Sudoeste 0 -- -- 86
2018-12-03 12:00:00 9.3 8 Oeste 19 Oeste 0 -- -- 89
2018-12-03 11:00:00 9.3 5 Oeste 20 Oeste 0 -- -- 88
2018-12-03 10:00:00 8.8 10 Sudoeste 21 Sudoeste 0 -- -- 89
2018-12-03 09:00:00 8.4 4 Oeste 20 Sudoeste 0 -- -- 90
2018-12-03 08:00:00 8.1 11 Sudoeste 31 Sudoeste 0 -- -- 90
2018-12-03 07:00:00 7.5 14 Oeste 30 Sudoeste 0 -- -- 91
2018-12-03 06:00:00 7.6 10 Oeste 24 Sudoeste 0 -- -- 90
2018-12-03 05:00:00 8.6 9 Oeste 17 Oeste 0 -- -- 86
2018-12-03 04:00:00 9.3 4 Nordeste 17 Oeste 0 -- -- 84
2018-12-03 03:00:00 9.2 9 Noroeste 16 Oeste 0 -- -- 85
2018-12-03 02:00:00 9.1 4 Oeste 13 Oeste 0 -- -- 85
2018-12-03 01:00:00 9.1 5 Sudoeste 14 Sudoeste 0 -- -- 84
2018-12-03 00:00:00 9.6 9 Sudoeste 32 Sudoeste 0 -- -- 82
2018-12-02 23:00:00 10.2 14 Sudoeste 33 Sudoeste 0 -- -- 79
2018-12-02 22:00:00 10.1 11 Sudoeste 32 Oeste 0 -- -- 79
2018-12-02 21:00:00 9.9 14 Sudoeste 32 Oeste 0 -- -- 80
2018-12-02 20:00:00 9.8 18 Oeste 39 Sudoeste 0 -- -- 79
2018-12-02 19:00:00 9.4 9 Oeste 28 Sudoeste 0 -- -- 80
2018-12-02 18:00:00 9.3 11 Sudoeste 31 Oeste 0 -- -- 80
2018-12-02 17:00:00 10.1 9 Sudoeste 33 Sudoeste 0 -- -- 77
2018-12-02 16:00:00 10.1 11 Sudoeste 37 Sur 0 -- -- 76
2018-12-02 15:00:00 10.3 18 Sudoeste 34 Sudoeste 0 -- -- 77
2018-12-02 14:00:00 9.7 11 Sudoeste 30 Sudoeste 0 -- -- 79
2018-12-02 13:00:00 9.5 14 Sudoeste 30 Sudoeste 0 -- -- 78
2018-12-02 12:00:00 8.7 7 Oeste 31 Sudoeste 0 -- -- 85
2018-12-02 11:00:00 7.7 13 Sudoeste 30 Sudoeste 0 -- -- 87
2018-12-02 10:00:00 7.3 18 Sudoeste 31 Sudoeste 0 -- -- 87
2018-12-02 09:00:00 7 15 Sudoeste 29 Sudoeste 0 -- -- 88
2018-12-02 08:00:00 6.9 9 Sudoeste 26 Sur 0 -- -- 88
2018-12-02 07:00:00 7.3 9 Sudoeste 18 Sudoeste 0 -- -- 87
2018-12-02 06:00:00 7.7 5 Oeste 19 Sur 0 -- -- 86
2018-12-02 05:00:00 7.8 4 Sudoeste 22 Sur 0 -- -- 85
2018-12-02 04:00:00 7.9 10 Sudoeste 28 Oeste 0 -- -- 85
2018-12-02 03:00:00 8 10 Sudoeste 29 Sudoeste 0 -- -- 84
2018-12-02 02:00:00 8.1 10 Sudoeste 31 Oeste 0 -- -- 83
2018-12-02 01:00:00 8.3 19 Oeste 33 Sudoeste 0 -- -- 83
2018-12-02 00:00:00 7.8 5 Oeste 27 Sudoeste 0 -- -- 86
2018-12-01 23:00:00 8.4 15 Sudoeste 29 Sudoeste 0 -- -- 84
2018-12-01 22:00:00 9 8 Sudoeste 28 Sudoeste 0 -- -- 80
2018-12-01 21:00:00 9.2 14 Sudoeste 37 Sudoeste 0 -- -- 80
2018-12-01 20:00:00 9.3 14 Sudoeste 34 Sudoeste 0 -- -- 79
2018-12-01 19:00:00 9.2 12 Sudoeste 30 Sudoeste 0 -- -- 77
2018-12-01 18:00:00 9.2 14 Sudoeste 32 Sudoeste 0 -- -- 79
2018-12-01 17:00:00 9.4 13 Sur 23 Sur 0 -- -- 77
2018-12-01 16:00:00 9.3 11 Sudoeste 30 Sudoeste 0 -- -- 76
2018-12-01 15:00:00 9.5 10 Sudoeste 25 Sur 0 -- -- 74
2018-12-01 14:00:00 8.3 14 Sudoeste 30 Sudoeste 0 -- -- 78
2018-12-01 13:00:00 8.3 10 Sudoeste 20 Sur 0 -- -- 77
2018-12-01 12:00:00 7.1 10 Oeste 22 Sudoeste 0 -- -- 82
2018-12-01 11:00:00 6.8 9 Oeste 20 Oeste 0 -- -- 83
2018-12-01 10:00:00 6.1 6 Noroeste 15 Sudoeste 0 -- -- 84
2018-12-01 09:00:00 6.3 8 Sudoeste 18 Sur 0 -- -- 80
2018-12-01 08:00:00 5.8 4 Este 10 Nordeste 0 -- -- 84
2018-12-01 07:00:00 5.9 4 Oeste 13 Oeste 0.2 -- -- 82
2018-12-01 06:00:00 6.4 8 Oeste 25 Oeste 0 -- -- 77
2018-12-01 05:00:00 6.6 11 Oeste 23 Oeste 0 -- -- 76
2018-12-01 04:00:00 6.2 7 Oeste 23 Oeste 0 -- -- 80
2018-12-01 03:00:00 5.2 9 Noroeste 19 Noroeste 0 -- -- 91
2018-12-01 02:00:00 1.5 3 Sudoeste 7 Noroeste 0 -- -- 97
2018-12-01 01:00:00 0.8 5 Oeste 8 Oeste 0 -- -- 97
2018-12-01 00:00:00 0.6 2 Oeste 8 Noroeste 0 -- -- 97
2018-11-30 23:00:00 0.4 2 Noroeste 9 Noroeste 0 -- -- 96
2018-11-30 22:00:00 0.9 5 Oeste 8 Noroeste 0 -- -- 94
2018-11-30 21:00:00 2.2 6 Oeste 9 Oeste 0 -- -- 92
2018-11-30 20:00:00 3.5 4 Noroeste 7 Oeste 0 -- -- 90
2018-11-30 19:00:00 4.5 2 Oeste 6 Noroeste 0 -- -- 86
2018-11-30 18:00:00 6 2 Sudeste 4 Sudeste 0 -- -- 79
2018-11-30 17:00:00 8.4 0 Calma 12 Sudoeste 0 -- -- 68
2018-11-30 16:00:00 9 9 Sudoeste 13 Sudoeste 0 -- -- 67
2018-11-30 15:00:00 8.6 7 Sudoeste 14 Sudoeste 0 -- -- 69
2018-11-30 14:00:00 6.7 3 Sur 12 Sudoeste 0 -- -- 78
2018-11-30 13:00:00 3.7 6 Oeste 10 Oeste 0 -- -- 91
2018-11-30 12:00:00 3.2 4 Oeste 8 Noroeste 0 -- -- 90
2018-11-30 11:00:00 2.7 4 Oeste 13 Oeste 0 -- -- 92
2018-11-30 10:00:00 2.8 5 Sudoeste 12 Oeste 0 -- -- 93
2018-11-30 09:00:00 2.7 9 Oeste 15 Noroeste 0 -- -- 94
2018-11-30 08:00:00 3.2 3 Oeste 21 Oeste 0 -- -- 93
2018-11-30 07:00:00 3.5 7 Oeste 16 Oeste 0 -- -- 93
2018-11-30 06:00:00 3.9 4 Oeste 14 Oeste 0 -- -- 93
2018-11-30 05:00:00 3.5 6 Noroeste 9 Oeste 0 -- -- 94
2018-11-30 04:00:00 4.4 4 Noroeste 9 Oeste 0 -- -- 91
2018-11-30 03:00:00 5.2 4 Oeste 15 Oeste 0 -- -- 89
2018-11-30 02:00:00 5.1 4 Noroeste 10 Oeste 0 -- -- 90
2018-11-30 01:00:00 5.4 6 Noroeste 13 Oeste 0 -- -- 90
2018-11-30 00:00:00 5.8 8 Oeste 16 Oeste 0 -- -- 92
2018-11-29 23:00:00 6 5 Sudoeste 15 Oeste 0 -- -- 91
2018-11-29 22:00:00 6 8 Oeste 22 Oeste 0 -- -- 90
2018-11-29 21:00:00 5.9 6 Oeste 18 Sudoeste 0 -- -- 90
2018-11-29 20:00:00 5.5 8 Oeste 13 Oeste 0 -- -- 91
2018-11-29 19:00:00 5.6 5 Oeste 19 Oeste 0 -- -- 90
2018-11-29 18:00:00 4.9 4 Noroeste 21 Oeste 0 -- -- 92
2018-11-29 17:00:00 4.8 15 Oeste 27 Noroeste 0.4 -- -- 89
2018-11-29 16:00:00 5.2 10 Oeste 19 Noroeste 1 -- -- 86
2018-11-29 15:00:00 6 7 Sudoeste 23 Sur 0.2 -- -- 81
2018-11-29 14:00:00 6.5 6 Oeste 22 Oeste 0 -- -- 77
2018-11-29 13:00:00 7.1 15 Oeste 23 Oeste 0 -- -- 67
2018-11-29 12:00:00 8.7 3 Sudoeste 14 Sudeste 0 -- -- 48
2018-11-29 11:00:00 9.5 10 Sudeste 16 Sudeste 0 -- -- 43
2018-11-29 10:00:00 7.7 10 Este 21 Este 0 -- -- 49
2018-11-29 09:00:00 4.8 10 Este 26 Este 0 -- -- 62
2018-11-29 08:00:00 4.3 13 Este 28 Este 0 -- -- 65
2018-11-29 07:00:00 3.6 12 Este 27 Este 0 -- -- 71
2018-11-29 06:00:00 5.6 4 Noroeste 14 Norte 0 -- -- 64
2018-11-29 05:00:00 4.3 4 Nordeste 15 Este 0 -- -- 72
2018-11-29 04:00:00 5.2 10 Sudeste 17 Sur 0 -- -- 69
2018-11-29 03:00:00 5.9 6 Norte 32 Noroeste 0 -- -- 67
2018-11-29 02:00:00 7.1 16 Noroeste 34 Noroeste 0 -- -- 62
2018-11-29 01:00:00 7.5 8 Oeste 26 Sudoeste 0 -- -- 63
2018-11-29 00:00:00 7.6 22 Sudoeste 37 Oeste 0 -- -- 65
2018-11-28 23:00:00 7.1 20 Sudoeste 34 Oeste 0 -- -- 69
2018-11-28 22:00:00 6.4 5 Norte 22 Norte 0 -- -- 74
2018-11-28 21:00:00 6.8 5 Noroeste 19 Oeste 0 -- -- 73
2018-11-28 13:00:00 10.9 12 Sudoeste 26 Oeste 0 -- -- 54
2018-11-28 12:00:00 9.5 16 Oeste 30 Sudoeste 0 -- -- 61
2018-11-28 11:00:00 8.5 13 Sudoeste 26 Sudoeste 0 -- -- 68
2018-11-28 10:00:00 6.4 9 Oeste 21 Sudoeste 0 -- -- 77
2018-11-28 09:00:00 5.1 9 Oeste 17 Oeste 0 -- -- 78
2018-11-28 08:00:00 5.3 9 Oeste 19 Sudoeste 0 -- -- 76
2018-11-28 07:00:00 5.8 6 Noroeste 13 Oeste 0 -- -- 72
2018-11-28 06:00:00 6.3 6 Oeste 21 Oeste 0 -- -- 71
2018-11-28 05:00:00 7 7 Oeste 23 Sudoeste 0 -- -- 68
2018-11-28 04:00:00 7.7 13 Oeste 30 Sudoeste 0 -- -- 64
2018-11-28 03:00:00 7.3 10 Oeste 19 Oeste 0 -- -- 70
2018-11-28 02:00:00 6.6 3 Sudoeste 12 Oeste 0 -- -- 78
2018-11-28 01:00:00 6.4 7 Oeste 23 Oeste 0 -- -- 80
2018-11-28 00:00:00 6.8 12 Oeste 23 Sudoeste 0 -- -- 78
2018-11-27 23:00:00 6.5 6 Oeste 21 Noroeste 0 -- -- 80
2018-11-27 22:00:00 6.1 8 Oeste 19 Oeste 0 -- -- 81
2018-11-27 21:00:00 6.4 2 Este 21 Sudoeste 0 -- -- 80
2018-11-27 20:00:00 6.3 4 Este 9 Este 0 -- -- 78
2018-11-27 19:00:00 6.4 2 Oeste 8 Noroeste 0 -- -- 71
2018-11-27 18:00:00 7.1 3 Noroeste 22 Sudoeste 0 -- -- 68
2018-11-27 17:00:00 8.1 6 Sudoeste 18 Sudoeste 0 -- -- 66
2018-11-27 16:00:00 8.7 9 Oeste 23 Sudoeste 0 -- -- 65
2018-11-27 15:00:00 8.9 12 Sudoeste 29 Sudoeste 0 -- -- 66
2018-11-27 14:00:00 9.4 13 Sudoeste 28 Sudoeste 0 -- -- 62
2018-11-27 13:00:00 8.7 13 Sudoeste 31 Oeste 0 -- -- 67
2018-11-27 12:00:00 6.5 22 Oeste 30 Oeste 0 -- -- 76
2018-11-27 11:00:00 3 3 Este 12 Noroeste 0 -- -- 99
2018-11-27 10:00:00 -0.5 4 Oeste 6 Noroeste 0 -- -- 98
2018-11-27 09:00:00 -1.4 0 Calma 6 Este 0 -- -- 99
2018-11-27 08:00:00 -2 2 Oeste 8 Oeste 0 -- -- 98
2018-11-27 07:00:00 -1.2 3 Oeste 8 Oeste 0 -- -- 97
2018-11-27 06:00:00 -0.9 4 Oeste 13 Oeste 0 -- -- 98
2018-11-27 05:00:00 -0.7 7 Noroeste 10 Noroeste 0 -- -- 97
2018-11-27 04:00:00 -0.8 6 Oeste 13 Oeste 0 -- -- 97
2018-11-27 03:00:00 -0.6 8 Oeste 12 Oeste 0 -- -- 97
2018-11-27 02:00:00 -0.4 7 Noroeste 10 Oeste 0 -- -- 96
2018-11-27 01:00:00 0.2 6 Oeste 11 Sudoeste 0 -- -- 96
2018-11-27 00:00:00 0.8 7 Sudoeste 10 Oeste 0 -- -- 94
2018-11-26 23:00:00 1.8 4 Oeste 10 Noroeste 0 -- -- 91
2018-11-26 22:00:00 3.5 4 Sudoeste 18 Sudoeste 0 -- -- 86
2018-11-26 21:00:00 5.4 6 Norte 17 Norte 0 -- -- 82
2018-11-26 20:00:00 6.3 6 Noroeste 12 Noroeste 0 -- -- 80
2018-11-26 19:00:00 6.2 6 Este 33 Oeste 0 -- -- 79
2018-11-26 18:00:00 7.1 15 Noroeste 30 Noroeste 0 -- -- 77
2018-11-26 17:00:00 7.4 11 Noroeste 30 Oeste 0 -- -- 78
2018-11-26 16:00:00 7.6 15 Oeste 37 Oeste 0 -- -- 75
2018-11-26 15:00:00 8.2 9 Noroeste 22 Oeste 0 -- -- 74
2018-11-26 14:00:00 8.6 8 Norte 14 Norte 0 -- -- 71
2018-11-26 13:00:00 7.6 9 Noroeste 23 Oeste 0 -- -- 79
2018-11-26 12:00:00 7.3 14 Noroeste 21 Noroeste 0 -- -- 77
2018-11-26 11:00:00 7.1 6 Sudoeste 14 Sudoeste 0 -- -- 85
2018-11-26 10:00:00 3.8 3 Sudoeste 12 Oeste 0 -- -- 98
2018-11-26 09:00:00 2.3 2 Sur 9 Oeste 0 -- -- 96
2018-11-26 08:00:00 1.9 3 Sudeste 6 Sudoeste 0 -- -- 96
2018-11-26 07:00:00 2.2 2 Nordeste 9 Sudoeste 0 -- -- 95
2018-11-26 06:00:00 2.4 6 Noroeste 11 Noroeste 0 -- -- 95
2018-11-26 05:00:00 2.1 3 Sudoeste 13 Noroeste 0.4 -- -- 94
2018-11-26 04:00:00 2.8 6 Noroeste 22 Noroeste 1.6 -- -- 91
2018-11-26 03:00:00 4 11 Noroeste 15 Noroeste 0.8 -- -- 92
2018-11-26 02:00:00 4.8 5 Oeste 9 Sudoeste 0.2 -- -- 90
2018-11-26 01:00:00 5.6 4 Oeste 9 Sudoeste 0 -- -- 84
2018-11-26 00:00:00 6.4 6 Sudoeste 10 Sur 0 -- -- 73
2018-11-25 23:00:00 6.9 6 Noroeste 9 Noroeste 0 -- -- 71
2018-11-25 22:00:00 6.5 0 Calma 14 Sudoeste 0 -- -- 74
2018-11-25 21:00:00 6.5 4 Noroeste 19 Oeste 0 -- -- 73
2018-11-25 20:00:00 5.7 4 Oeste 7 Sudoeste 0 -- -- 83
2018-11-25 19:00:00 6 3 Oeste 8 Noroeste 0 -- -- 83
2018-11-25 18:00:00 7 2 Noroeste 5 Oeste 0 -- -- 76
2018-11-25 17:00:00 9 0 Calma 12 Sudoeste 0 -- -- 64
2018-11-25 16:00:00 9.9 10 Sudoeste 17 Sur 0 -- -- 59
2018-11-25 15:00:00 10.3 7 Sudoeste 17 Sur 0.2 -- -- 62
2018-11-25 14:00:00 10.7 5 Oeste 13 Este 0 -- -- 64
2018-11-25 13:00:00 9.9 4 Sur 8 Este 0 -- -- 64
2018-11-25 12:00:00 8.9 3 Este 9 Sudeste 0 -- -- 69
2018-11-25 11:00:00 7.7 3 Este 9 Este 0 -- -- 75
2018-11-25 10:00:00 5.1 4 Noroeste 10 Noroeste 0 -- -- 83
2018-11-25 09:00:00 5.1 2 Sudeste 11 Noroeste 0 -- -- 90
2018-11-25 08:00:00 5 4 Norte 23 Norte 0 -- -- 88
2018-11-25 07:00:00 5.4 4 Nordeste 14 Este 0 -- -- 90
2018-11-25 06:00:00 6.1 2 Nordeste 17 Noroeste 0 -- -- 91
2018-11-25 05:00:00 6.7 9 Noroeste 21 Norte 0.4 -- -- 95
2018-11-25 04:00:00 7.6 11 Oeste 28 Noroeste 1.6 -- -- 95
2018-11-25 03:00:00 7.3 10 Oeste 41 Sudoeste 0.6 -- -- 93
2018-11-25 02:00:00 7.7 26 Sudoeste 55 Sudoeste 0 -- -- 88
2018-11-25 01:00:00 7.5 20 Sudoeste 46 Sudoeste 0.2 -- -- 87
2018-11-25 00:00:00 6.9 24 Sudoeste 64 Sudoeste 0 -- -- 85
2018-11-24 23:00:00 7 30 Sudoeste 58 Sudoeste 0 -- -- 85
2018-11-24 22:00:00 7 25 Sur 55 Sudoeste 0.2 -- -- 82
2018-11-24 21:00:00 6.9 19 Sur 54 Sudoeste 1.8 -- -- 83
2018-11-24 20:00:00 7.8 21 Sudoeste 51 Sudoeste 0.2 -- -- 78
2018-11-24 19:00:00 8.5 19 Sudoeste 36 Sudoeste 0 -- -- 76
2018-11-24 18:00:00 8.2 12 Sudoeste 36 Sudoeste 0 -- -- 79
2018-11-24 17:00:00 8.8 14 Sudoeste 27 Sur 0 -- -- 75
2018-11-24 16:00:00 8.6 12 Sudoeste 37 Sudoeste 0 -- -- 82
2018-11-24 15:00:00 9 17 Sudoeste 42 Sudoeste 0 -- -- 78
2018-11-24 14:00:00 10 21 Sudoeste 39 Sudoeste 0 -- -- 75
2018-11-24 13:00:00 8.8 13 Sudoeste 38 Sudoeste 0 -- -- 79
2018-11-24 12:00:00 8.1 19 Sudoeste 41 Sudoeste 0 -- -- 81
2018-11-24 11:00:00 7.4 14 Sudoeste 31 Sudoeste 0 -- -- 84
2018-11-24 10:00:00 6.7 15 Sudoeste 32 Sur 0 -- -- 87
2018-11-24 09:00:00 6.4 12 Sudoeste 29 Sudoeste 0 -- -- 88
2018-11-24 08:00:00 6.3 12 Sudoeste 26 Sudoeste 0 -- -- 88
2018-11-24 07:00:00 6.3 10 Sudoeste 23 Sudoeste 0 -- -- 87
2018-11-24 06:00:00 6.2 12 Sudoeste 30 Sudoeste 0 -- -- 88
2018-11-24 05:00:00 6.1 14 Sudoeste 32 Sur 0.2 -- -- 89
2018-11-24 04:00:00 5.9 14 Sudoeste 31 Sudoeste 0 -- -- 90
2018-11-24 03:00:00 6 12 Sudoeste 32 Sudoeste 0 -- -- 88
2018-11-24 02:00:00 6.3 16 Sudoeste 33 Sudoeste 0 -- -- 84
2018-11-24 01:00:00 6.1 15 Oeste 32 Oeste 0 -- -- 82
2018-11-24 00:00:00 6.4 18 Sudoeste 33 Oeste 0 -- -- 80
2018-11-23 23:00:00 6.5 16 Sudoeste 28 Sudoeste 0 -- -- 80
2018-11-23 22:00:00 6.3 14 Sudoeste 33 Sudoeste 0 -- -- 80
2018-11-23 21:00:00 6.5 16 Sudoeste 28 Sudoeste 0 -- -- 79
2018-11-23 20:00:00 6.7 16 Sudoeste 33 Sudoeste 0 -- -- 76
2018-11-23 19:00:00 6.8 9 Sudoeste 27 Sudoeste 0 -- -- 75
2018-11-23 18:00:00 7 12 Sudoeste 32 Sudoeste 0 -- -- 72
2018-11-23 17:00:00 7.4 20 Sudoeste 36 Sudoeste 0 -- -- 70
2018-11-23 16:00:00 8.4 15 Sudoeste 34 Sudoeste 0.2 -- -- 67
2018-11-23 15:00:00 9.9 16 Sudoeste 33 Sudoeste 0 -- -- 60
2018-11-23 14:00:00 8.9 15 Sudoeste 33 Oeste 0 -- -- 64
2018-11-23 13:00:00 7.8 17 Sudoeste 32 Oeste 0 -- -- 74
2018-11-23 12:00:00 8.8 17 Sudoeste 30 Sudoeste 0 -- -- 71
2018-11-23 11:00:00 7.1 14 Sudoeste 28 Oeste 0 -- -- 81
2018-11-23 10:00:00 6.5 13 Sudoeste 23 Oeste 0 -- -- 80
2018-11-23 09:00:00 5.9 7 Sudoeste 17 Sur 0 -- -- 85
2018-11-23 08:00:00 5.9 10 Sudoeste 18 Sur 0 -- -- 86
2018-11-23 07:00:00 5.8 6 Sudeste 19 Sudoeste 0 -- -- 88
2018-11-23 06:00:00 5.6 4 Sudeste 14 Sudoeste 0 -- -- 89
2018-11-23 05:00:00 5.8 6 Sudeste 12 Sur 0 -- -- 88
2018-11-23 04:00:00 5.9 3 Sur 12 Sudoeste 0.2 -- -- 86
2018-11-23 03:00:00 6.2 9 Oeste 25 Oeste 0.4 -- -- 86
2018-11-23 02:00:00 6.5 5 Noroeste 15 Noroeste 0 -- -- 85
2018-11-23 01:00:00 6.3 5 Norte 16 Noroeste 0 -- -- 84
2018-11-23 00:00:00 6.9 7 Sudoeste 22 Sudoeste 0 -- -- 81
2018-11-22 23:00:00 7.1 10 Sudoeste 27 Sur 0 -- -- 81
2018-11-22 22:00:00 6.9 11 Sur 28 Sudoeste 0 -- -- 81
2018-11-22 21:00:00 7.5 8 Sur 25 Sudoeste 0 -- -- 78
2018-11-22 20:00:00 7.2 6 Sudeste 30 Sur 0 -- -- 77
2018-11-22 19:00:00 7.5 4 Sudeste 28 Sudoeste 0 -- -- 79
2018-11-22 18:00:00 7.8 6 Sur 21 Sudoeste 0 -- -- 76
2018-11-22 17:00:00 8.9 11 Sudoeste 32 Sudoeste 0 -- -- 70
2018-11-22 16:00:00 9.9 14 Sudoeste 37 Sudoeste 0 -- -- 67
2018-11-22 15:00:00 10.1 17 Sur 38 Sudoeste 0 -- -- 67
2018-11-22 14:00:00 10.5 16 Sudoeste 38 Sudoeste 0 -- -- 66
2018-11-22 13:00:00 9.8 23 Sudoeste 43 Sudoeste 0 -- -- 69
2018-11-22 12:00:00 7.7 18 Sur 36 Sur 0 -- -- 79
2018-11-22 11:00:00 8.4 14 Sudoeste 27 Sudoeste 0 -- -- 77
2018-11-22 10:00:00 5.9 10 Sudoeste 23 Sudoeste 0 -- -- 91
2018-11-22 09:00:00 4.8 5 Oeste 30 Sudoeste 1 -- -- 91
2018-11-22 08:00:00 5.5 10 Sur 22 Sudoeste 0.6 -- -- 87
2018-11-22 07:00:00 5.7 8 Sur 35 Sudoeste 0 -- -- 85
2018-11-22 06:00:00 5.5 19 Sudoeste 35 Sudoeste 0 -- -- 85
2018-11-22 05:00:00 5.5 15 Sudoeste 37 Sudoeste 0 -- -- 86
2018-11-22 04:00:00 5.7 14 Sudoeste 30 Sudoeste 0.2 -- -- 86
2018-11-22 03:00:00 5.9 13 Sudoeste 34 Sudoeste 0 -- -- 83
2018-11-22 02:00:00 6 18 Sudoeste 44 Sudoeste 0 -- -- 83
2018-11-22 01:00:00 6.2 16 Sudoeste 36 Sudoeste 0 -- -- 81
2018-11-22 00:00:00 6 15 Sudoeste 39 Sudoeste 0 -- -- 84
2018-11-21 23:00:00 6.3 14 Sudoeste 38 Sudoeste 0 -- -- 82
2018-11-21 22:00:00 6.5 8 Sudoeste 25 Sudoeste 0 -- -- 80
2018-11-21 21:00:00 6.7 8 Sudoeste 22 Sudoeste 0 -- -- 81
2018-11-21 20:00:00 7 9 Sur 35 Sudoeste 0 -- -- 81
2018-11-21 19:00:00 7.2 9 Sudoeste 19 Sudoeste 0 -- -- 79
2018-11-21 18:00:00 7.2 10 Sudoeste 28 Sudoeste 0 -- -- 78
2018-11-21 17:00:00 7.3 8 Sudoeste 30 Sudoeste 0 -- -- 83
2018-11-21 16:00:00 7.6 9 Sudoeste 27 Oeste 1 -- -- 85
2018-11-21 15:00:00 7.1 13 Sudoeste 32 Oeste 0.6 -- -- 85
2018-11-21 14:00:00 9.5 13 Sudoeste 41 Sudoeste 0 -- -- 71
2018-11-21 13:00:00 9.5 18 Sudoeste 33 Sudoeste 0 -- -- 73
2018-11-21 12:00:00 8.9 12 Oeste 24 Oeste 0 -- -- 80
2018-11-21 11:00:00 6.1 6 Oeste 14 Oeste 0 -- -- 86
2018-11-21 10:00:00 5.7 3 Oeste 9 Sur 0 -- -- 89
2018-11-21 09:00:00 4.7 5 Oeste 17 Oeste 0 -- -- 90
2018-11-21 08:00:00 4.9 5 Oeste 12 Oeste 0 -- -- 91
2018-11-21 07:00:00 3.9 4 Nordeste 12 Oeste 0 -- -- 98
2018-11-21 06:00:00 2.9 2 Noroeste 8 Este 0 -- -- 98
2018-11-21 05:00:00 3.1 3 Nordeste 9 Noroeste 0.2 -- -- 98
2018-11-21 04:00:00 3 2 Nordeste 8 Este 0 -- -- 98
2018-11-21 03:00:00 3 0 Calma 4 Noroeste 0 -- -- 98
2018-11-21 02:00:00 2.9 2 Noroeste 5 Noroeste 0.8 -- -- 97
2018-11-21 01:00:00 3 0 Calma 4 Este 0.2 -- -- 97
2018-11-21 00:00:00 3 4 Este 10 Este 0.2 -- -- 97
2018-11-20 23:00:00 3 6 Este 10 Este 0.2 -- -- 96
2018-11-20 22:00:00 3.2 0 Calma 6 Este 0.2 -- -- 96
2018-11-20 21:00:00 3.3 3 Este 9 Nordeste 0 -- -- 95
2018-11-20 20:00:00 3.3 5 Nordeste 13 Este 0.2 -- -- 95
2018-11-20 19:00:00 3.7 4 Sudeste 7 Este 0.2 -- -- 95
2018-11-20 18:00:00 3.9 3 Sudeste 5 Sudeste 0 -- -- 94
2018-11-20 17:00:00 4.1 2 Sudeste 8 Este 0 -- -- 94
2018-11-20 16:00:00 3.9 5 Este 9 Sudeste 0 -- -- 95
2018-11-20 15:00:00 3.7 7 Este 13 Sudeste 0.2 -- -- 94
2018-11-20 14:00:00 3.9 8 Sudeste 13 Sudeste 0.8 -- -- 93
2018-11-20 13:00:00 4.3 7 Este 15 Sudeste 1.8 -- -- 94
2018-11-20 12:00:00 4.7 5 Sudeste 12 Noroeste 1 -- -- 94
2018-11-20 11:00:00 4.7 4 Noroeste 11 Nordeste 0.4 -- -- 93
2018-11-20 10:00:00 4.9 4 Nordeste 14 Norte 0.2 -- -- 92
2018-11-20 09:00:00 5.2 4 Norte 10 Norte 0.4 -- -- 94
2018-11-20 08:00:00 5.4 0 Calma 6 Sudeste 0 -- -- 95
2018-11-20 07:00:00 5.7 2 Sudoeste 7 Sudeste 0.2 -- -- 94
2018-11-20 06:00:00 6 3 Sudeste 7 Sudeste 0 -- -- 93
2018-11-20 05:00:00 6.2 0 Calma 7 Noroeste 0 -- -- 91
2018-11-20 04:00:00 6.4 3 Nordeste 12 Norte 0 -- -- 91
2018-11-20 03:00:00 6.7 3 Nordeste 6 Este 0 -- -- 91
2018-11-20 02:00:00 7 3 Noroeste 6 Norte 0 -- -- 88
2018-11-20 01:00:00 7 3 Norte 6 Noroeste 0 -- -- 88
2018-11-20 00:00:00 7.4 4 Norte 12 Noroeste 0 -- -- 87
2018-11-19 23:00:00 7.5 2 Noroeste 7 Sur 0 -- -- 90
2018-11-19 22:00:00 7.6 4 Norte 8 Norte 0 -- -- 88
2018-11-19 21:00:00 8.4 2 Oeste 9 Noroeste 0 -- -- 87
2018-11-19 20:00:00 9 5 Noroeste 10 Noroeste 0 -- -- 85
2018-11-19 19:00:00 9.9 3 Nordeste 17 Noroeste 0 -- -- 80
2018-11-19 18:00:00 10.5 5 Norte 15 Norte 0 -- -- 77
2018-11-19 17:00:00 11.8 4 Noroeste 10 Noroeste 0 -- -- 66
2018-11-19 16:00:00 12.2 5 Noroeste 17 Sudoeste 0 -- -- 62
2018-11-19 15:00:00 13.9 7 Sudoeste 13 Noroeste 0 -- -- 59
2018-11-19 14:00:00 13.5 8 Sudoeste 14 Sudoeste 0 -- -- 65
2018-11-19 13:00:00 11.6 6 Sur 12 Oeste 0 -- -- 72
2018-11-19 12:00:00 9.1 0 Calma 5 Sudeste 0 -- -- 82
2018-11-19 11:00:00 7.8 3 Sudoeste 5 Oeste 0.2 -- -- 90
2018-11-19 10:00:00 7.1 3 Oeste 5 Este 0 -- -- 92
2018-11-19 09:00:00 6.8 0 Calma 3 Oeste 0 -- -- 92
2018-11-19 08:00:00 6.7 0 Calma 14 Este 0 -- -- 91
2018-11-19 07:00:00 6.9 10 Este 16 Este 0 -- -- 90
2018-11-19 06:00:00 7 5 Este 13 Este 0 -- -- 90
2018-11-19 05:00:00 7.1 4 Sudeste 12 Este 0 -- -- 90
2018-11-19 04:00:00 7.2 6 Este 22 Este 0 -- -- 90
2018-11-19 03:00:00 7.3 12 Este 26 Este 0 -- -- 90
2018-11-19 02:00:00 7.6 15 Este 27 Este 0 -- -- 90
2018-11-19 01:00:00 7.6 13 Este 25 Este 0 -- -- 91
2018-11-19 00:00:00 7.7 13 Este 24 Este 0 -- -- 91
2018-11-18 23:00:00 7.6 14 Este 31 Este 0 -- -- 92
2018-11-18 22:00:00 7.6 17 Este 31 Este 0.2 -- -- 92
2018-11-18 21:00:00 7.5 12 Este 31 Este 0.6 -- -- 93
2018-11-18 20:00:00 7.7 19 Este 37 Sudeste 0 -- -- 90
2018-11-18 19:00:00 7.7 18 Sudeste 36 Este 0 -- -- 91
2018-11-18 18:00:00 7.9 18 Este 31 Este 0 -- -- 90
2018-11-18 17:00:00 8.4 16 Este 29 Este 0 -- -- 89
2018-11-18 16:00:00 9.5 16 Este 26 Este 0 -- -- 86
2018-11-18 15:00:00 10.2 18 Este 27 Este 0 -- -- 82
2018-11-18 14:00:00 10.6 14 Este 23 Este 0 -- -- 90
2018-11-18 13:00:00 8.8 5 Sudeste 9 Sudeste 0 -- -- 99
2018-11-18 12:00:00 7 2 Sudeste 6 Oeste 0 -- -- 100
2018-11-18 11:00:00 5.7 3 Sudoeste 13 Sudoeste 0 -- -- 100
2018-11-18 10:00:00 5 6 Oeste 10 Noroeste 0 -- -- 100
2018-11-18 09:00:00 3.8 2 Sudoeste 10 Sudoeste 0 -- -- 99
2018-11-18 08:00:00 3.4 7 Oeste 11 Oeste 0 -- -- 99
2018-11-18 07:00:00 3.5 6 Sudoeste 11 Sudoeste 0 -- -- 99
2018-11-18 06:00:00 3.9 8 Oeste 11 Sudoeste 0 -- -- 99
2018-11-18 05:00:00 4.2 4 Sudoeste 9 Sudoeste 0 -- -- 98
2018-11-18 04:00:00 4.3 4 Oeste 7 Sudoeste 0 -- -- 98
2018-11-18 03:00:00 4.3 3 Oeste 4 Oeste 0 -- -- 98
2018-11-18 02:00:00 4 0 Calma 5 Este 0 -- -- 98
2018-11-18 01:00:00 3.4 0 Calma 6 Sudoeste 0 -- -- 97
2018-11-18 00:00:00 3.2 0 Calma 5 Oeste 0 -- -- 97
2018-11-17 23:00:00 3.3 2 Sur 4 Este 0 -- -- 95
2018-11-17 22:00:00 4.3 0 Calma 9 Oeste 0 -- -- 95
2018-11-17 21:00:00 5.4 8 Oeste 10 Noroeste 0 -- -- 94
2018-11-17 20:00:00 6.7 3 Oeste 11 Oeste 0 -- -- 91
2018-11-17 19:00:00 8.8 5 Oeste 8 Noroeste 0 -- -- 85
2018-11-17 18:00:00 12.3 2 Oeste 8 Oeste 0 -- -- 74
2018-11-17 17:00:00 15.6 6 Oeste 12 Oeste 0 -- -- 61
2018-11-17 16:00:00 17.1 4 Sur 18 Sur 0 -- -- 57
2018-11-17 15:00:00 17.5 8 Sudoeste 22 Sudoeste 0 -- -- 56
2018-11-17 14:00:00 16.8 11 Sudoeste 21 Sudoeste 0 -- -- 61
2018-11-17 13:00:00 14.4 2 Oeste 10 Oeste 0 -- -- 70
2018-11-17 12:00:00 13.4 3 Este 14 Este 0 -- -- 76
2018-11-17 11:00:00 9.3 4 Este 7 Este 0 -- -- 100
2018-11-17 10:00:00 6 3 Oeste 12 Oeste 0 -- -- 100
2018-11-17 09:00:00 4.1 6 Oeste 10 Oeste 0 -- -- 99
2018-11-17 08:00:00 3.4 6 Oeste 9 Noroeste 0 -- -- 99
2018-11-17 07:00:00 2.7 3 Oeste 6 Oeste 0 -- -- 99
2018-11-17 06:00:00 3.2 0 Calma 7 Este 0 -- -- 98
2018-11-17 05:00:00 3.4 3 Este 15 Noroeste 0 -- -- 98
2018-11-17 04:00:00 3.7 6 Oeste 12 Oeste 0 -- -- 98
2018-11-17 03:00:00 3.8 5 Oeste 9 Oeste 0 -- -- 98
2018-11-17 02:00:00 3.7 3 Oeste 7 Oeste 0 -- -- 98
2018-11-17 01:00:00 4.2 3 Este 9 Noroeste 0 -- -- 97
2018-11-17 00:00:00 5.1 4 Oeste 6 Oeste 0 -- -- 96
2018-11-16 23:00:00 5.9 0 Calma 8 Sudoeste 0 -- -- 96
2018-11-16 22:00:00 6.7 2 Sudoeste 8 Sudoeste 0 -- -- 95
2018-11-16 21:00:00 7.9 3 Oeste 6 Oeste 0 -- -- 92
2018-11-16 20:00:00 9 4 Noroeste 8 Este 0 -- -- 90
2018-11-16 19:00:00 10.4 3 Este 12 Nordeste 0 -- -- 86
2018-11-16 18:00:00 12 7 Este 18 Este 0 -- -- 81
2018-11-16 17:00:00 14.6 13 Este 28 Este 0 -- -- 72
2018-11-16 16:00:00 16.3 9 Sudeste 18 Este 0 -- -- 64
2018-11-16 15:00:00 16.2 6 Sudeste 19 Este 0 -- -- 64
2018-11-16 14:00:00 16.3 10 Este 19 Sudeste 0 -- -- 65
2018-11-16 13:00:00 15.9 12 Sudeste 21 Este 0 -- -- 66
2018-11-16 12:00:00 14.1 3 Sudeste 9 Sudeste 0 -- -- 75
2018-11-16 11:00:00 11.1 3 Oeste 6 Oeste 0 -- -- 87
2018-11-16 10:00:00 9.6 2 Sudoeste 6 Sudoeste 0 -- -- 96
2018-11-16 09:00:00 8.5 4 Oeste 7 Sudoeste 0 -- -- 97
2018-11-16 08:00:00 8.6 4 Oeste 5 Oeste 0 -- -- 97
2018-11-16 07:00:00 8.6 2 Sudoeste 4 Sudoeste 0 -- -- 97
2018-11-16 06:00:00 8.7 0 Calma 4 Oeste 0 -- -- 97
2018-11-16 05:00:00 8.3 0 Calma 4 Noroeste 0 -- -- 97
2018-11-16 04:00:00 8 0 Calma 7 Oeste 0 -- -- 98
2018-11-16 03:00:00 7.6 2 Noroeste 6 Este 0 -- -- 98
2018-11-16 02:00:00 6.8 4 Oeste 9 Oeste 0 -- -- 98
2018-11-16 01:00:00 6 4 Oeste 9 Sudoeste 0 -- -- 98
2018-11-16 00:00:00 5.2 6 Oeste 10 Sudoeste 0 -- -- 97
2018-11-15 23:00:00 5.1 3 Nordeste 12 Oeste 0 -- -- 96
2018-11-15 22:00:00 5.8 2 Noroeste 10 Noroeste 0 -- -- 95
2018-11-15 21:00:00 7 6 Oeste 10 Oeste 0 -- -- 94
2018-11-15 20:00:00 8.4 4 Noroeste 9 Noroeste 0 -- -- 92
2018-11-15 19:00:00 10 2 Norte 9 Este 0 -- -- 88
2018-11-15 18:00:00 12.3 4 Oeste 7 Oeste 0 -- -- 79
2018-11-15 17:00:00 17 4 Oeste 12 Sudoeste 0 -- -- 59
2018-11-15 16:00:00 17.6 2 Norte 15 Sudoeste 0 -- -- 57
2018-11-15 15:00:00 17.6 6 Sudeste 17 Sudoeste 0 -- -- 57
2018-11-15 14:00:00 17.2 7 Sur 20 Sudoeste 0 -- -- 59
2018-11-15 13:00:00 15.1 4 Sudoeste 8 Sudoeste 0 -- -- 72
2018-11-15 12:00:00 10.2 4 Oeste 6 Oeste 0 -- -- 100
2018-11-15 11:00:00 7.6 3 Oeste 6 Noroeste 0 -- -- 99
2018-11-15 10:00:00 7 2 Sudoeste 9 Sudoeste 0 -- -- 99
2018-11-15 09:00:00 6.2 3 Sudoeste 9 Sudoeste 0 -- -- 99
2018-11-15 08:00:00 5.9 4 Oeste 7 Sudoeste 0 -- -- 99
2018-11-15 07:00:00 5.9 4 Oeste 9 Oeste 0 -- -- 99
2018-11-15 06:00:00 6 4 Oeste 9 Sudoeste 0 -- -- 98
2018-11-15 05:00:00 6.4 4 Oeste 9 Oeste 0 -- -- 98
2018-11-15 04:00:00 6.9 5 Sudoeste 8 Sudoeste 0 -- -- 98
2018-11-15 03:00:00 7 2 Oeste 9 Sudoeste 0 -- -- 98
2018-11-15 02:00:00 7.5 2 Oeste 9 Sudoeste 0 -- -- 98
2018-11-15 01:00:00 7.9 4 Sudoeste 8 Sudoeste 0 -- -- 97
2018-11-15 00:00:00 7.6 3 Oeste 10 Oeste 0 -- -- 97
2018-11-14 23:00:00 7.7 0 Calma 6 Sudoeste 0 -- -- 97
2018-11-14 22:00:00 7.4 4 Oeste 6 Sudoeste 0 -- -- 96
2018-11-14 21:00:00 7.4 3 Oeste 4 Oeste 0 -- -- 95
2018-11-14 20:00:00 8.1 0 Calma 4 Sudoeste 0 -- -- 92
2018-11-14 19:00:00 9.7 2 Este 5 Sudeste 0 -- -- 88
2018-11-14 18:00:00 11.8 0 Calma 8 Oeste 0 -- -- 83
2018-11-14 17:00:00 13.5 6 Sudoeste 12 Sudoeste 0 -- -- 77
2018-11-14 16:00:00 14.4 6 Sudoeste 15 Oeste 0 -- -- 74
2018-11-14 15:00:00 16.6 6 Sudoeste 13 Sudoeste 0 -- -- 65
2018-11-14 14:00:00 15.4 8 Sudoeste 14 Sudoeste 0 -- -- 71
2018-11-14 13:00:00 13.8 4 Oeste 10 Sudoeste 0 -- -- 73
2018-11-14 12:00:00 11.4 3 Norte 6 Noroeste 0 -- -- 86
2018-11-14 11:00:00 8.5 2 Oeste 5 Oeste 0 -- -- 96
2018-11-14 10:00:00 7.5 3 Sudoeste 9 Oeste 0 -- -- 97
2018-11-14 09:00:00 7.2 5 Sudoeste 9 Sur 0 -- -- 97
2018-11-14 08:00:00 7.3 4 Sudoeste 7 Sudoeste 0 -- -- 97
2018-11-14 07:00:00 7.8 2 Oeste 8 Sudoeste 0 -- -- 98
2018-11-14 06:00:00 8 4 Sudoeste 9 Sudoeste 0 -- -- 98
2018-11-14 05:00:00 8.2 3 Sudoeste 6 Sudoeste 0 -- -- 98
2018-11-14 04:00:00 8.3 4 Oeste 6 Sudoeste 0 -- -- 98
2018-11-14 03:00:00 8.1 3 Sudoeste 6 Oeste 0 -- -- 98
2018-11-14 02:00:00 8 4 Oeste 9 Sudoeste 0 -- -- 98
2018-11-14 01:00:00 7.7 5 Sudoeste 8 Oeste 0 -- -- 97
2018-11-14 00:00:00 7 3 Sudoeste 5 Sudoeste 0 -- -- 97
2018-11-13 23:00:00 6.7 2 Oeste 5 Oeste 0 -- -- 97
2018-11-13 22:00:00 6.2 5 Oeste 6 Noroeste 0 -- -- 96
2018-11-13 21:00:00 6.4 2 Oeste 4 Sudoeste 0 -- -- 95
2018-11-13 20:00:00 7.5 0 Calma 5 Sudoeste 0 -- -- 93
2018-11-13 19:00:00 9.8 0 Calma 5 Este 0 -- -- 88
2018-11-13 18:00:00 12.7 0 Calma 5 Sudeste 0 -- -- 78
2018-11-13 17:00:00 15.5 4 Sudeste 14 Sudeste 0 -- -- 67
2018-11-13 16:00:00 16 8 Este 12 Sudeste 0 -- -- 64
2018-11-13 15:00:00 16 6 Sudeste 11 Sudeste 0 -- -- 66
2018-11-13 14:00:00 14.4 5 Sudeste 14 Sudeste 0 -- -- 71
2018-11-13 13:00:00 12.7 8 Sudeste 17 Sudeste 0 -- -- 74
2018-11-13 12:00:00 11.2 10 Sudeste 16 Este -- -- -- 81
2018-11-13 11:00:00 10 5 Sudeste 9 Sudeste 0 -- -- 86
2018-11-13 10:00:00 8.8 3 Sudeste 8 Norte 0 -- -- 91
2018-11-13 09:00:00 7.9 3 Norte 7 Norte 0 -- -- 95
2018-11-13 08:00:00 7.5 0 Calma 5 Nordeste 0 -- -- 96
2018-11-13 07:00:00 7.5 4 Noroeste 6 Noroeste 0 -- -- 96
2018-11-13 06:00:00 7.5 5 Noroeste 7 Noroeste 0 -- -- 96
2018-11-13 05:00:00 7.8 0 Calma 3 Sudeste 0 -- -- 96
2018-11-13 04:00:00 7.8 2 Oeste 4 Noroeste 0 -- -- 95
2018-11-13 03:00:00 7.9 2 Este 8 Sudeste 0 -- -- 95
2018-11-13 02:00:00 8.1 4 Sudeste 7 Sudeste 0 -- -- 94
2018-11-13 01:00:00 8.2 0 Calma 10 Este 0 -- -- 92
2018-11-13 00:00:00 8.3 5 Norte 14 Norte 0 -- -- 93
2018-11-12 23:00:00 8.3 4 Noroeste 12 Noroeste 0 -- -- 94
2018-11-12 22:00:00 8.4 3 Oeste 9 Norte 0 -- -- 95
2018-11-12 21:00:00 8.6 7 Norte 14 Norte 0 -- -- 94
2018-11-12 20:00:00 8.8 0 Calma 4 Noroeste 0 -- -- 95
2018-11-12 19:00:00 9.1 2 Sur 6 Este 0.4 -- -- 93
2018-11-12 18:00:00 9.7 5 Este 9 Noroeste 0.8 -- -- 91
2018-11-12 17:00:00 10.8 6 Noroeste 12 Oeste 0 -- -- 79
2018-11-12 16:00:00 11.5 8 Oeste 14 Oeste 0 -- -- 78
2018-11-12 15:00:00 12.5 5 Oeste 10 Oeste 0 -- -- 75
2018-11-12 14:00:00 11.1 3 Este 6 Este 0 -- -- 82
2018-11-12 13:00:00 10.5 0 Calma 9 Sudeste 0 -- -- 84
2018-11-12 12:00:00 10 6 Este 13 Este 0 -- -- 90
2018-11-12 11:00:00 9.2 5 Sudeste 8 Sudeste 0 -- -- 97
2018-11-12 10:00:00 8.4 4 Este 6 Sudeste 0 -- -- 98
2018-11-12 09:00:00 7.8 3 Este 6 Este 0.2 -- -- 98
2018-11-12 08:00:00 7.7 3 Sudeste 5 Sudeste 0 -- -- 97
2018-11-12 07:00:00 7.7 2 Este 5 Noroeste 0.2 -- -- 97
2018-11-12 06:00:00 7.6 2 Noroeste 6 Norte 0.8 -- -- 96
2018-11-12 05:00:00 7.7 2 Este 10 Noroeste 0.6 -- -- 95
2018-11-12 04:00:00 8 4 Noroeste 14 Noroeste 0 -- -- 93
2018-11-12 03:00:00 7.4 3 Noroeste 8 Noroeste 0.2 -- -- 95
2018-11-12 02:00:00 8 3 Sudeste 13 Norte 0 -- -- 93
2018-11-12 01:00:00 8.3 8 Noroeste 19 Noroeste 0.4 -- -- 93
2018-11-12 00:00:00 8 11 Oeste 17 Noroeste 2 -- -- 96
2018-11-11 23:00:00 8.6 2 Nordeste 6 Oeste 0.6 -- -- 96
2018-11-11 22:00:00 8.7 3 Norte 11 Oeste 1.2 -- -- 94
2018-11-11 21:00:00 9 5 Noroeste 15 Oeste 0.6 -- -- 93
2018-11-11 20:00:00 10.3 6 Oeste 19 Oeste 1.2 -- -- 90
2018-11-11 19:00:00 11.3 12 Sudoeste 31 Sudeste 0.6 -- -- 87
2018-11-11 18:00:00 12 12 Sur 40 Sudeste 0.2 -- -- 86
2018-11-11 17:00:00 11.9 19 Sudeste 39 Sur 0.2 -- -- 85
2018-11-11 16:00:00 11.8 12 Sudeste 24 Sudeste 1.8 -- -- 90
2018-11-11 15:00:00 11.7 10 Sudoeste 39 Sudoeste 2.4 -- -- 88
2018-11-11 14:00:00 12.2 12 Sudoeste 40 Sur 0.6 -- -- 86
2018-11-11 13:00:00 11.9 9 Sur 26 Sudoeste 0.6 -- -- 88
2018-11-11 12:00:00 11.9 14 Sudoeste 29 Sudoeste 0.8 -- -- 87
2018-11-11 11:00:00 11.8 17 Sudoeste 35 Sudoeste 0 -- -- 84
2018-11-11 10:00:00 10.9 13 Sudoeste 35 Sur 0.6 -- -- 86
2018-11-11 09:00:00 11.3 19 Sudoeste 46 Sudoeste 0 -- -- 81
2018-11-11 08:00:00 11.3 20 Sudoeste 42 Sudoeste 0 -- -- 78
2018-11-11 07:00:00 11.2 19 Sudoeste 42 Sudoeste 0 -- -- 78
2018-11-11 06:00:00 10.8 21 Oeste 41 Sudoeste 0 -- -- 79
2018-11-11 05:00:00 10.8 26 Sudoeste 52 Sudoeste 0 -- -- 79
2018-11-11 04:00:00 10.7 23 Sudoeste 46 Sudoeste 0 -- -- 78
2018-11-11 03:00:00 10.2 18 Sudoeste 42 Sudoeste 0 -- -- 80
2018-11-11 02:00:00 10.3 19 Sudoeste 46 Sudoeste 0 -- -- 76
2018-11-11 01:00:00 10.4 22 Sudoeste 53 Sudoeste 0 -- -- 79
2018-11-11 00:00:00 10.7 17 Sudoeste 48 Sudoeste 0 -- -- 79
2018-11-10 23:00:00 10.4 19 Oeste 45 Sudoeste 0 -- -- 78
2018-11-10 22:00:00 10.2 4 Sur 28 Oeste 0 -- -- 77
2018-11-10 21:00:00 10.5 8 Sur 24 Oeste 0 -- -- 77
2018-11-10 20:00:00 10.7 8 Oeste 35 Oeste 0 -- -- 78
2018-11-10 19:00:00 10.9 15 Oeste 35 Oeste 0 -- -- 80
2018-11-10 18:00:00 10.9 9 Oeste 37 Oeste 0 -- -- 87
2018-11-10 17:00:00 11.7 19 Oeste 53 Oeste 0.8 -- -- 84
2018-11-10 16:00:00 13.9 18 Sudoeste 49 Sudoeste 0 -- -- 71
2018-11-10 15:00:00 13.6 20 Sudoeste 41 Sudoeste 0 -- -- 73
2018-11-10 14:00:00 14.5 15 Sudoeste 43 Sudoeste 0 -- -- 69
2018-11-10 13:00:00 15.8 14 Sudoeste 41 Oeste 0 -- -- 64
2018-11-10 12:00:00 14.8 13 Oeste 43 Oeste 0 -- -- 65
2018-11-10 11:00:00 14.2 21 Oeste 54 Sudoeste 0 -- -- 64
2018-11-10 10:00:00 13.3 24 Oeste 55 Sudoeste 0 -- -- 73
2018-11-10 09:00:00 11.5 27 Oeste 61 Sudoeste 0 -- -- 87
2018-11-10 08:00:00 11.2 30 Sudoeste 57 Sudoeste 0 -- -- 86
2018-11-10 07:00:00 11 28 Sudoeste 64 Sudoeste 0 -- -- 85
2018-11-10 06:00:00 11 24 Sudoeste 59 Sudoeste 0 -- -- 85
2018-11-10 05:00:00 10.5 19 Sudoeste 50 Sudoeste 0.2 -- -- 87
2018-11-10 04:00:00 10.4 18 Sudoeste 62 Sudoeste 0 -- -- 86
2018-11-10 03:00:00 10.1 16 Sudoeste 42 Sudoeste 0 -- -- 87
2018-11-10 02:00:00 9.8 14 Sudoeste 41 Sudoeste 0 -- -- 90
2018-11-10 01:00:00 9.8 12 Sudoeste 42 Sudoeste 0 -- -- 87
2018-11-10 00:00:00 9.3 14 Sudoeste 36 Sudoeste 0 -- -- 88